Puerto Escondido International Airport
MMPS : now visible

Airfield :











YOU CAN JOIN US ON...

 
LOGIN :

Register | Disclaimer

   EN    FR    IT 

 









Legend :    VFR   Marginal VFR   IFR   Intensive IFR   Very Intensive IFR
Visi :
Ceiling :
>= 8 km
>= 3000ft
5 to 8 km
1000 to 3000 ft
1500m to 5 km
500 to 1000 ft
800 to 1500m
200 to 500 ft
< 800m
< 200 ft
Symbols :   Thunderstorms  Fog  Heavy snow  Heavy precipitations  Wind > 20 kt






- Airport Elevation : 294 ft
- IATA code : PXM


MMPS - Puerto Escondido International

CURRENT METAR :
  • 231743Z 30010KT 12SM SKC 34/27 A2985 RMK HZY

EXPIRED METARs :
  • 231645Z 28007KT 10SM SKC 32/27 A2986 RMK HZY
  • 231546Z 31006KT 9SM SKC 32/26 A2987 RMK HZY
  • 231442Z 32005KT 9SM SKC 31/26 A2987 RMK HZY
  • 231345Z 34003KT 9SM SKC 30/26 A2986 RMK HZY

TAF TAF MMPS
Valid from the 23 at 18:00 until the 24 at 18:00 UTC


231726Z 2318/2418 27010KT P6SM SKC
BECMG 2321/2322 SCT030
FM240000 30005KT P6SM SCT030
FM241200 31010KT P6SM SKC
MMFR FIR / North America



MET'MAP, your aeronautical weather chart ! - Copyright ORBIFLY December 2007 - Disclaimer

ORBIFLY MET'MAP TEAM :

Programming & Development : Alexandra Zaïnal
Original concept : Baudouin d'Aumeries
Technical & hardware support : Manuel Goepfert
Assistance : Marc-Olivier Méhu




SOURCES & CREDITS :

   NOAA       Earth
Advisory